createdAt,value
2022-11-17T00:00:24.395Z,98.79
2022-11-17T00:00:55.945Z,98.78
2022-11-17T00:01:27.482Z,98.75
2022-11-17T00:01:59.062Z,98.68
2022-11-17T00:02:30.633Z,98.53
2022-11-17T00:03:02.296Z,98.66
2022-11-17T00:03:34.357Z,98.62
2022-11-17T00:04:06.167Z,98.70
2022-11-17T00:04:37.684Z,98.61
2022-11-17T00:05:09.354Z,98.55
2022-11-17T00:05:40.877Z,98.50
2022-11-17T00:06:12.615Z,98.55
2022-11-17T00:06:44.742Z,98.62
2022-11-17T00:07:16.332Z,98.58
2022-11-17T00:07:49.093Z,98.53
2022-11-17T00:08:20.642Z,98.68
2022-11-17T00:08:53.040Z,98.51
2022-11-17T00:09:25.257Z,98.51
2022-11-17T00:09:56.785Z,98.43
2022-11-17T00:10:28.339Z,98.59
2022-11-17T00:11:03.767Z,98.42
2022-11-17T00:11:55.243Z,98.63
2022-11-17T00:12:45.328Z,98.78
2022-11-17T00:13:35.341Z,98.70
2022-11-17T00:14:30.418Z,98.63
2022-11-17T00:15:02.030Z,98.57
2022-11-17T00:15:33.665Z,98.69
2022-11-17T00:16:05.473Z,98.77
2022-11-17T00:16:37.018Z,98.64
2022-11-17T00:17:11.294Z,98.69
2022-11-17T00:17:42.838Z,98.57
2022-11-17T00:18:32.861Z,98.62
2022-11-17T00:19:23.346Z,98.33
2022-11-17T00:20:13.601Z,98.50
2022-11-17T00:21:03.318Z,98.50
2022-11-17T00:21:35.011Z,98.70
2022-11-17T00:22:06.562Z,98.78
2022-11-17T00:22:38.093Z,98.84
2022-11-17T00:23:09.615Z,98.79
2022-11-17T00:23:47.348Z,98.87
2022-11-17T00:24:19.192Z,98.73
2022-11-17T00:24:51.261Z,98.76
2022-11-17T00:25:22.884Z,98.56
2022-11-17T00:25:54.399Z,98.49
2022-11-17T00:26:28.676Z,98.47
2022-11-17T00:27:03.253Z,98.49
2022-11-17T00:27:34.788Z,98.62
2022-11-17T00:28:06.305Z,98.69
2022-11-17T00:28:37.926Z,98.82
2022-11-17T00:29:09.477Z,98.63
2022-11-17T00:29:41.033Z,98.50
2022-11-17T00:30:33.053Z,98.58
2022-11-17T00:31:23.322Z,98.67
2022-11-17T00:32:13.490Z,98.81
2022-11-17T00:33:03.274Z,98.93
2022-11-17T00:33:53.267Z,98.74
2022-11-17T00:34:24.796Z,98.81
2022-11-17T00:34:56.401Z,98.71
2022-11-17T00:35:27.930Z,98.79
2022-11-17T00:35:59.557Z,98.87
2022-11-17T00:36:35.740Z,98.71
2022-11-17T00:37:08.601Z,98.68
2022-11-17T00:37:59.658Z,98.58
2022-11-17T00:38:31.176Z,98.70
2022-11-17T00:39:03.869Z,98.52
2022-11-17T00:39:35.823Z,98.53
2022-11-17T00:40:07.700Z,98.78
2022-11-17T00:40:39.329Z,98.76
2022-11-17T00:41:10.855Z,98.68
2022-11-17T00:41:42.795Z,98.96
2022-11-17T00:42:14.297Z,98.86
2022-11-17T00:42:45.837Z,98.85
2022-11-17T00:43:17.398Z,98.73
2022-11-17T00:43:48.942Z,98.58
2022-11-17T00:44:20.512Z,98.45
2022-11-17T00:44:52.042Z,98.54
2022-11-17T00:45:23.578Z,98.58
2022-11-17T00:45:55.093Z,98.62
2022-11-17T00:46:26.962Z,98.52
2022-11-17T00:46:58.528Z,98.46
2022-11-17T00:47:30.056Z,98.48
2022-11-17T00:48:01.585Z,98.49
2022-11-17T00:48:33.113Z,98.57
2022-11-17T00:49:05.930Z,98.57
2022-11-17T00:49:37.485Z,98.62
2022-11-17T00:50:09.766Z,98.80
2022-11-17T00:50:41.284Z,98.68
2022-11-17T00:51:12.810Z,98.66
2022-11-17T00:51:44.341Z,98.57
2022-11-17T00:52:15.885Z,98.69
2022-11-17T00:52:47.438Z,98.89
2022-11-17T00:53:18.966Z,98.79
2022-11-17T00:53:50.566Z,98.51
2022-11-17T00:54:22.875Z,98.73
2022-11-17T00:54:54.417Z,98.51
2022-11-17T00:55:26.073Z,98.42
2022-11-17T00:55:57.644Z,98.46
2022-11-17T00:56:29.450Z,98.62
2022-11-17T00:57:01.024Z,98.55
2022-11-17T00:57:32.578Z,98.39
2022-11-17T00:58:04.133Z,98.45
2022-11-17T00:58:36.476Z,98.71
2022-11-17T00:59:08.088Z,98.87
2022-11-17T00:59:39.593Z,98.72
2022-11-17T01:00:11.559Z,98.72
2022-11-17T01:00:43.071Z,98.67
2022-11-17T01:01:14.839Z,98.44
2022-11-17T01:01:46.636Z,98.42
2022-11-17T01:02:18.309Z,98.51
2022-11-17T01:02:49.902Z,98.57
2022-11-17T01:03:21.468Z,98.57
2022-11-17T01:04:03.117Z,98.66
2022-11-17T01:04:34.806Z,98.67
2022-11-17T01:05:06.547Z,98.81
2022-11-17T01:05:38.163Z,98.76
2022-11-17T01:06:15.318Z,99.01
2022-11-17T01:06:49.065Z,98.69
2022-11-17T01:07:22.819Z,98.59
2022-11-17T01:07:54.426Z,98.51
2022-11-17T01:08:26.008Z,98.53
2022-11-17T01:09:05.866Z,98.56
2022-11-17T01:09:37.390Z,98.64
2022-11-17T01:10:09.400Z,98.59
2022-11-17T01:10:40.947Z,98.54
2022-11-17T01:11:15.474Z,98.65
2022-11-17T01:11:48.600Z,98.80
2022-11-17T01:12:20.134Z,98.77
2022-11-17T01:12:51.670Z,98.80
2022-11-17T01:13:23.209Z,98.63
2022-11-17T01:13:57.875Z,98.75
2022-11-17T01:14:30.957Z,98.56
2022-11-17T01:15:02.531Z,98.62
2022-11-17T01:15:34.694Z,98.77
2022-11-17T01:16:12.615Z,98.75
2022-11-17T01:16:44.636Z,98.60
2022-11-17T01:17:16.173Z,98.57
2022-11-17T01:17:47.859Z,98.66
2022-11-17T01:18:19.381Z,98.73
2022-11-17T01:18:51.951Z,98.51
2022-11-17T01:19:24.321Z,98.52
2022-11-17T01:19:55.866Z,98.65
2022-11-17T01:20:27.415Z,98.68
2022-11-17T01:21:09.151Z,98.65
2022-11-17T01:21:40.812Z,98.66
2022-11-17T01:22:13.071Z,98.75
2022-11-17T01:22:44.589Z,98.75
2022-11-17T01:23:16.272Z,98.48
2022-11-17T01:23:49.442Z,98.56
2022-11-17T01:24:21.061Z,98.93
2022-11-17T01:24:52.597Z,98.85
2022-11-17T01:25:24.126Z,98.88
2022-11-17T01:26:01.634Z,98.76
2022-11-17T01:26:35.295Z,98.74
2022-11-17T01:27:06.845Z,98.95
2022-11-17T01:27:38.371Z,98.80
2022-11-17T01:28:09.905Z,98.65
2022-11-17T01:28:42.257Z,98.66
2022-11-17T01:29:17.105Z,98.73
2022-11-17T01:29:48.729Z,98.60
2022-11-17T01:30:20.341Z,98.60
2022-11-17T01:30:59.530Z,98.55
2022-11-17T01:31:34.046Z,98.76
2022-11-17T01:32:05.585Z,98.43
2022-11-17T01:32:37.155Z,98.48
2022-11-17T01:33:08.685Z,98.62
2022-11-17T01:33:40.583Z,98.50
2022-11-17T01:34:12.584Z,98.65
2022-11-17T01:34:44.212Z,98.77
2022-11-17T01:35:15.827Z,98.93
2022-11-17T01:35:47.344Z,98.84
2022-11-17T01:36:24.760Z,98.42
2022-11-17T01:37:14.537Z,98.51
2022-11-17T01:37:46.098Z,98.49
2022-11-17T01:38:17.609Z,98.50
2022-11-17T01:38:49.533Z,98.57
2022-11-17T01:39:21.340Z,98.66
2022-11-17T01:39:52.881Z,98.76
2022-11-17T01:40:24.435Z,99.02
2022-11-17T01:40:58.490Z,98.91
2022-11-17T01:41:30.049Z,98.82
2022-11-17T01:42:13.109Z,98.41
2022-11-17T01:42:44.628Z,98.60
2022-11-17T01:43:16.193Z,98.43
2022-11-17T01:43:48.901Z,98.55
2022-11-17T01:44:44.442Z,98.60
2022-11-17T01:45:20.383Z,98.77
2022-11-17T01:45:51.933Z,98.91
2022-11-17T01:46:26.161Z,99.07
2022-11-17T01:47:00.879Z,99.15
2022-11-17T01:47:38.770Z,99.18
2022-11-17T01:48:13.552Z,99.11
2022-11-17T01:48:46.131Z,99.29
2022-11-17T01:49:28.635Z,99.09
2022-11-17T01:50:26.204Z,98.88
2022-11-17T01:50:58.446Z,99.03
2022-11-17T01:51:32.921Z,99.04
2022-11-17T01:52:07.825Z,99.08
2022-11-17T01:52:41.032Z,99.18
2022-11-17T01:53:17.411Z,99.13
2022-11-17T01:53:51.340Z,98.87
2022-11-17T01:54:28.894Z,98.85
2022-11-17T01:55:01.800Z,98.85
2022-11-17T01:55:38.449Z,99.02
2022-11-17T01:56:14.781Z,98.95
2022-11-17T01:56:49.589Z,99.12
2022-11-17T01:57:26.695Z,99.22
2022-11-17T01:58:07.589Z,99.24
2022-11-17T01:58:43.101Z,99.04
2022-11-17T01:59:31.079Z,98.92
2022-11-17T02:00:07.182Z,99.09
2022-11-17T02:01:56.688Z,99.19
2022-11-17T02:02:28.777Z,98.96
2022-11-17T02:03:00.849Z,99.04
2022-11-17T02:03:35.535Z,98.86
2022-11-17T02:04:07.333Z,98.96
2022-11-17T02:04:49.689Z,98.98
2022-11-17T02:05:39.584Z,99.01
2022-11-17T02:06:20.832Z,98.76
2022-11-17T02:06:59.672Z,98.93
2022-11-17T02:07:37.762Z,98.74
2022-11-17T02:08:11.101Z,98.67
2022-11-17T02:08:45.835Z,98.69
2022-11-17T02:09:17.598Z,98.80
2022-11-17T02:09:49.677Z,98.55
2022-11-17T02:10:21.201Z,98.74
2022-11-17T02:10:53.816Z,98.70
2022-11-17T02:11:26.008Z,98.73
2022-11-17T02:11:59.093Z,98.54
2022-11-17T02:12:32.695Z,98.62
2022-11-17T02:13:05.466Z,98.56
2022-11-17T02:13:38.949Z,98.59
2022-11-17T02:14:11.105Z,98.59
2022-11-17T02:14:42.787Z,98.39
2022-11-17T02:15:14.462Z,98.29
2022-11-17T02:15:45.992Z,98.49
2022-11-17T02:16:18.003Z,98.35
2022-11-17T02:16:49.579Z,98.33
2022-11-17T02:17:23.464Z,98.73
2022-11-17T02:17:56.216Z,98.60
2022-11-17T02:18:27.781Z,98.66
2022-11-17T02:18:59.432Z,98.72
2022-11-17T02:19:38.836Z,98.51
2022-11-17T02:20:10.649Z,98.56
2022-11-17T02:20:53.540Z,98.65
2022-11-17T02:21:46.748Z,98.51
2022-11-17T02:23:04.918Z,98.57
2022-11-17T02:23:51.427Z,98.44
2022-11-17T02:24:31.296Z,98.85
2022-11-17T02:25:27.108Z,98.74
2022-11-17T02:26:15.134Z,98.73
2022-11-17T02:26:49.248Z,98.93
2022-11-17T02:27:48.869Z,98.60
2022-11-17T02:28:23.794Z,98.46
2022-11-17T02:29:09.410Z,98.44
2022-11-17T02:30:10.317Z,98.47
2022-11-17T02:30:58.063Z,98.50
2022-11-17T02:31:42.618Z,98.77
2022-11-17T02:32:24.657Z,98.99
2022-11-17T02:33:15.661Z,98.88
2022-11-17T02:33:59.347Z,98.87
2022-11-17T02:34:51.973Z,98.93
2022-11-17T02:35:26.887Z,98.98
2022-11-17T02:36:04.296Z,98.93
2022-11-17T02:36:46.470Z,98.97
2022-11-17T02:37:39.523Z,98.97
2022-11-17T02:38:23.605Z,99.08
2022-11-17T02:39:14.397Z,98.93
2022-11-17T02:40:10.548Z,98.99
2022-11-17T02:40:48.444Z,98.68
2022-11-17T02:41:24.001Z,98.85
2022-11-17T02:42:04.317Z,98.82
2022-11-17T02:43:03.966Z,98.66
2022-11-17T02:44:03.261Z,98.76
2022-11-17T02:44:42.305Z,98.70
2022-11-17T02:45:22.473Z,98.62
2022-11-17T02:46:14.605Z,98.49
2022-11-17T02:47:10.873Z,98.86
2022-11-17T02:47:44.713Z,98.74
2022-11-17T02:48:28.405Z,98.75
2022-11-17T02:49:06.085Z,98.78
2022-11-17T02:49:41.209Z,98.97
2022-11-17T02:50:14.021Z,99.02
2022-11-17T02:50:47.782Z,99.12
2022-11-17T02:51:21.688Z,98.95
2022-11-17T02:51:56.315Z,99.15
2022-11-17T02:52:30.586Z,98.75
2022-11-17T02:53:03.390Z,98.76
2022-11-17T02:53:36.175Z,98.81
2022-11-17T02:54:09.054Z,98.80
2022-11-17T02:54:40.581Z,98.80
2022-11-17T02:55:12.346Z,98.60
2022-11-17T02:55:50.446Z,98.74
2022-11-17T02:56:22.501Z,98.55
2022-11-17T02:56:54.036Z,98.39
2022-11-17T02:57:33.534Z,98.39
2022-11-17T02:58:11.930Z,98.32
2022-11-17T02:58:43.451Z,98.44
2022-11-17T02:59:18.148Z,98.41
2022-11-17T02:59:50.017Z,98.24
2022-11-17T03:00:21.613Z,98.30
2022-11-17T03:01:22.378Z,98.39
2022-11-17T03:02:14.063Z,98.38
2022-11-17T03:03:13.605Z,98.51
2022-11-17T03:04:11.028Z,98.46
2022-11-17T03:05:19.170Z,98.36
2022-11-17T03:05:50.645Z,98.45
2022-11-17T03:06:45.793Z,98.48
2022-11-17T03:07:33.009Z,98.43
2022-11-17T03:08:33.294Z,98.31
2022-11-17T03:09:32.505Z,98.21
2022-11-17T03:10:12.018Z,98.19
2022-11-17T03:11:00.144Z,98.25
2022-11-17T03:12:13.565Z,98.08
2022-11-17T03:12:59.441Z,98.29
2022-11-17T03:13:45.858Z,98.19
2022-11-17T03:14:40.394Z,98.12
2022-11-17T03:15:36.632Z,98.11
2022-11-17T03:16:29.685Z,98.15
2022-11-17T03:17:13.371Z,98.00
2022-11-17T03:17:51.086Z,98.19
2022-11-17T03:18:50.777Z,98.43
2022-11-17T03:19:57.846Z,98.32
2022-11-17T03:20:46.242Z,98.08
2022-11-17T03:21:28.846Z,98.23
2022-11-17T03:22:12.908Z,98.35
2022-11-17T03:23:13.806Z,98.39
2022-11-17T03:24:09.394Z,98.34
2022-11-17T03:24:52.361Z,98.30
2022-11-17T03:25:27.157Z,98.31
2022-11-17T03:25:59.814Z,98.56
2022-11-17T03:26:35.850Z,98.49
2022-11-17T03:27:16.879Z,98.48
2022-11-17T03:27:53.563Z,98.68
2022-11-17T03:28:29.283Z,98.71
2022-11-17T03:29:02.636Z,98.62
2022-11-17T03:29:36.780Z,98.30
2022-11-17T03:30:10.297Z,98.19
2022-11-17T03:30:44.025Z,98.17
2022-11-17T03:31:17.728Z,98.16
2022-11-17T03:31:53.465Z,98.08
2022-11-17T03:32:27.892Z,98.24
2022-11-17T03:33:05.238Z,98.10
2022-11-17T03:33:39.207Z,98.13
2022-11-17T03:34:15.625Z,97.90
2022-11-17T03:34:55.658Z,98.13
2022-11-17T03:35:31.963Z,98.32
2022-11-17T03:36:35.634Z,98.41
2022-11-17T03:37:09.370Z,98.03
2022-11-17T03:37:45.794Z,97.91
2022-11-17T03:38:20.693Z,98.20
2022-11-17T03:39:02.555Z,98.30
2022-11-17T03:39:37.654Z,98.02
2022-11-17T03:40:12.687Z,97.80
2022-11-17T03:40:47.503Z,97.94
2022-11-17T03:41:20.939Z,98.11
2022-11-17T03:41:59.801Z,98.04
2022-11-17T03:42:34.594Z,97.98
2022-11-17T03:43:09.491Z,98.13
2022-11-17T03:43:43.198Z,98.13
2022-11-17T03:44:16.302Z,98.12
2022-11-17T03:44:52.881Z,98.10
2022-11-17T03:45:30.375Z,98.32
2022-11-17T03:46:10.053Z,98.28
2022-11-17T03:46:44.459Z,98.31
2022-11-17T03:47:18.794Z,98.08
2022-11-17T03:48:00.606Z,98.28
2022-11-17T03:48:37.998Z,98.49
2022-11-17T03:49:35.518Z,98.13
2022-11-17T03:50:15.943Z,98.09
2022-11-17T03:50:51.970Z,98.19
2022-11-17T03:51:27.240Z,98.35
2022-11-17T03:51:58.850Z,98.71
2022-11-17T03:52:31.193Z,98.89
2022-11-17T03:53:04.208Z,98.87
2022-11-17T03:53:36.926Z,98.91
2022-11-17T03:54:09.567Z,98.73
2022-11-17T03:54:41.641Z,98.36
2022-11-17T03:55:14.089Z,98.28
2022-11-17T03:55:54.249Z,98.04
2022-11-17T03:56:38.226Z,98.25
2022-11-17T03:57:29.929Z,98.60
2022-11-17T03:58:07.556Z,98.41
2022-11-17T03:58:46.614Z,98.28
2022-11-17T03:59:33.849Z,98.20
2022-11-17T04:00:11.015Z,98.10
2022-11-17T04:00:43.349Z,98.38
2022-11-17T04:01:15.570Z,98.15
2022-11-17T04:01:47.311Z,97.93
2022-11-17T04:02:20.659Z,98.13
2022-11-17T04:02:58.642Z,98.14
2022-11-17T04:03:32.634Z,98.28
2022-11-17T04:04:04.561Z,98.26
2022-11-17T04:04:54.877Z,98.20
2022-11-17T04:05:27.138Z,98.28
2022-11-17T04:05:58.682Z,98.05
2022-11-17T04:06:30.243Z,98.21
2022-11-17T04:07:01.839Z,98.05
2022-11-17T04:07:42.562Z,98.35
2022-11-17T04:08:14.227Z,98.38
2022-11-17T04:08:45.811Z,98.40
2022-11-17T04:09:22.880Z,98.30
2022-11-17T04:09:55.812Z,98.29
2022-11-17T04:10:27.438Z,98.41
2022-11-17T04:11:17.778Z,98.52
2022-11-17T04:12:07.962Z,98.43
2022-11-17T04:12:57.986Z,98.17
2022-11-17T04:13:48.140Z,98.47
2022-11-17T04:14:38.193Z,98.36
2022-11-17T04:15:29.450Z,98.39
2022-11-17T04:16:01.647Z,98.24
2022-11-17T04:16:33.193Z,98.42
2022-11-17T04:17:04.751Z,98.77
2022-11-17T04:17:36.271Z,98.67
2022-11-17T04:18:07.851Z,98.76
2022-11-17T04:18:39.376Z,98.75
2022-11-17T04:19:11.050Z,98.66
2022-11-17T04:19:42.585Z,98.50
2022-11-17T04:20:14.442Z,98.83
2022-11-17T04:20:49.234Z,99.01
2022-11-17T04:21:20.806Z,99.11
2022-11-17T04:21:52.330Z,99.04
2022-11-17T04:22:23.880Z,99.03
2022-11-17T04:23:07.459Z,99.00
2022-11-17T04:23:39.053Z,98.97
2022-11-17T04:24:10.654Z,98.89
2022-11-17T04:24:42.180Z,98.74
2022-11-17T04:25:33.727Z,98.66
2022-11-17T04:26:23.471Z,98.53
2022-11-17T04:27:14.014Z,98.57
2022-11-17T04:28:03.961Z,98.37
2022-11-17T04:28:38.872Z,98.32
2022-11-17T04:29:10.408Z,98.51
2022-11-17T04:29:41.933Z,98.34
2022-11-17T04:30:13.775Z,98.36
2022-11-17T04:30:45.295Z,98.47
2022-11-17T04:31:25.934Z,98.64
2022-11-17T04:31:57.495Z,98.55
2022-11-17T04:32:29.025Z,98.38
2022-11-17T04:33:00.536Z,98.39
2022-11-17T04:33:32.948Z,98.70
2022-11-17T04:34:05.745Z,98.66
2022-11-17T04:34:40.837Z,98.74
2022-11-17T04:35:12.381Z,98.77
2022-11-17T04:35:50.297Z,98.63
2022-11-17T04:36:24.508Z,98.58
2022-11-17T04:36:56.093Z,98.61
2022-11-17T04:37:27.621Z,98.61
2022-11-17T04:37:59.133Z,98.71
2022-11-17T04:38:30.709Z,98.56
2022-11-17T04:39:03.087Z,98.71
2022-11-17T04:39:37.654Z,98.51
2022-11-17T04:40:09.897Z,98.43
2022-11-17T04:41:01.368Z,98.35
2022-11-17T04:41:53.771Z,98.74
2022-11-17T04:42:25.365Z,98.55
2022-11-17T04:42:56.874Z,98.58
2022-11-17T04:43:28.892Z,98.58
2022-11-17T04:44:01.498Z,98.78
2022-11-17T04:44:33.128Z,98.74
2022-11-17T04:45:05.074Z,98.58
2022-11-17T04:45:36.582Z,98.84
2022-11-17T04:46:08.101Z,98.88
2022-11-17T04:46:41.094Z,98.69
2022-11-17T04:47:12.604Z,98.48
2022-11-17T04:47:44.133Z,98.32
2022-11-17T04:48:15.641Z,98.37
2022-11-17T04:48:47.769Z,98.25
2022-11-17T04:49:20.632Z,98.68
2022-11-17T04:49:52.152Z,98.51
2022-11-17T04:50:23.706Z,98.17
2022-11-17T04:50:56.845Z,97.91
2022-11-17T04:51:29.312Z,98.10
2022-11-17T04:52:01.335Z,98.24
2022-11-17T04:52:32.897Z,97.91
2022-11-17T04:53:04.434Z,97.87
2022-11-17T04:53:36.293Z,97.80
2022-11-17T04:54:09.837Z,97.98
2022-11-17T04:54:41.374Z,97.99
2022-11-17T04:55:13.065Z,97.95
2022-11-17T04:55:44.601Z,98.17
2022-11-17T04:56:16.622Z,98.07
2022-11-17T04:56:48.353Z,98.43
2022-11-17T04:57:19.900Z,98.51
2022-11-17T04:57:51.418Z,98.52
2022-11-17T04:58:22.933Z,98.62
2022-11-17T04:58:54.731Z,98.66
2022-11-17T04:59:26.374Z,98.89
2022-11-17T04:59:57.887Z,98.63
2022-11-17T05:00:29.454Z,98.64
2022-11-17T05:01:12.400Z,98.70
2022-11-17T05:01:44.381Z,98.62
2022-11-17T05:02:15.986Z,98.93
2022-11-17T05:02:47.577Z,98.67
2022-11-17T05:03:19.107Z,98.87
2022-11-17T05:04:01.696Z,98.84
2022-11-17T05:04:51.826Z,98.76
2022-11-17T05:05:23.363Z,98.89
2022-11-17T05:05:54.905Z,99.17
2022-11-17T05:06:33.614Z,98.87
2022-11-17T05:07:06.146Z,98.61
2022-11-17T05:07:37.806Z,98.86
2022-11-17T05:08:09.373Z,98.95
2022-11-17T05:08:41.450Z,98.77
2022-11-17T05:09:16.871Z,99.01
2022-11-17T05:09:48.399Z,98.87
2022-11-17T05:10:39.901Z,98.89
2022-11-17T05:11:32.426Z,98.73
2022-11-17T05:12:23.179Z,98.95
2022-11-17T05:13:12.975Z,98.93
2022-11-17T05:13:44.489Z,98.90
2022-11-17T05:14:18.768Z,98.98
2022-11-17T05:14:50.575Z,98.89
2022-11-17T05:15:42.133Z,98.85
2022-11-17T05:16:32.413Z,98.90
2022-11-17T05:17:11.359Z,98.75
2022-11-17T05:17:43.370Z,98.64
2022-11-17T05:18:14.882Z,98.61
2022-11-17T05:18:46.403Z,98.90
2022-11-17T05:19:22.062Z,98.80
2022-11-17T05:19:53.578Z,98.87
2022-11-17T05:20:25.167Z,98.74
2022-11-17T05:21:05.047Z,98.55
2022-11-17T05:21:36.677Z,98.96
2022-11-17T05:22:28.542Z,98.72
2022-11-17T05:23:18.542Z,98.95
2022-11-17T05:23:55.619Z,99.07
2022-11-17T05:24:27.528Z,98.91
2022-11-17T05:24:59.468Z,98.72
2022-11-17T05:25:30.998Z,98.91
2022-11-17T05:26:02.541Z,98.94
2022-11-17T05:26:36.720Z,98.74
2022-11-17T05:27:08.234Z,98.62
2022-11-17T05:27:39.747Z,98.54
2022-11-17T05:28:11.265Z,98.54
2022-11-17T05:28:43.034Z,98.68
2022-11-17T05:29:17.942Z,98.66
2022-11-17T05:29:49.676Z,98.79
2022-11-17T05:30:21.201Z,98.98
2022-11-17T05:30:52.726Z,98.69
2022-11-17T05:31:25.499Z,98.64
2022-11-17T05:31:57.046Z,98.74
2022-11-17T05:32:28.581Z,98.79
2022-11-17T05:33:00.098Z,98.69
2022-11-17T05:33:37.427Z,98.67
2022-11-17T05:34:12.408Z,98.71
2022-11-17T05:34:43.950Z,98.66
2022-11-17T05:35:15.474Z,98.79
2022-11-17T05:35:46.988Z,98.44
2022-11-17T05:36:19.670Z,98.59
2022-11-17T05:36:51.199Z,98.62
2022-11-17T05:37:22.821Z,98.58
2022-11-17T05:37:54.336Z,98.39
2022-11-17T05:38:25.883Z,98.46
2022-11-17T05:38:57.636Z,98.63
2022-11-17T05:39:29.150Z,98.62
2022-11-17T05:40:00.666Z,98.53
2022-11-17T05:40:32.177Z,98.67
2022-11-17T05:41:04.076Z,98.65
2022-11-17T05:41:37.241Z,98.52
2022-11-17T05:42:08.836Z,98.27
2022-11-17T05:42:40.399Z,98.29
2022-11-17T05:43:11.948Z,98.71
2022-11-17T05:43:44.089Z,98.98
2022-11-17T05:44:15.623Z,98.87
2022-11-17T05:44:48.575Z,98.87
2022-11-17T05:45:20.208Z,98.85
2022-11-17T05:45:51.850Z,98.79
2022-11-17T05:46:23.795Z,98.72
2022-11-17T05:46:55.389Z,98.78
2022-11-17T05:47:26.900Z,98.69
2022-11-17T05:47:58.445Z,98.77
2022-11-17T05:48:30.189Z,98.82
2022-11-17T05:49:01.792Z,98.84
2022-11-17T05:49:33.351Z,98.67
2022-11-17T05:50:05.187Z,98.62
2022-11-17T05:50:36.760Z,98.50
2022-11-17T05:51:08.329Z,98.56
2022-11-17T05:51:39.889Z,98.56
2022-11-17T05:52:11.421Z,98.65
2022-11-17T05:52:42.929Z,98.70
2022-11-17T05:53:14.516Z,98.78
2022-11-17T05:53:46.462Z,98.78
2022-11-17T05:54:18.015Z,98.76
2022-11-17T05:54:49.569Z,98.82
2022-11-17T05:55:21.149Z,98.77
2022-11-17T05:56:07.126Z,98.69
2022-11-17T05:56:52.541Z,98.66
2022-11-17T05:57:30.500Z,98.58
2022-11-17T05:58:10.885Z,98.52
2022-11-17T05:58:46.057Z,98.37
2022-11-17T05:59:32.329Z,98.45
2022-11-17T06:00:04.755Z,98.45
2022-11-17T06:00:39.653Z,98.44
2022-11-17T06:01:14.070Z,98.53
2022-11-17T06:02:23.785Z,98.41
2022-11-17T06:03:08.197Z,98.36
2022-11-17T06:03:47.420Z,98.45
2022-11-17T06:04:19.622Z,98.42
2022-11-17T06:04:51.853Z,98.51
2022-11-17T06:05:24.041Z,98.48
2022-11-17T06:05:57.489Z,98.61
2022-11-17T06:06:30.152Z,98.53
2022-11-17T06:07:02.594Z,98.56
2022-11-17T06:07:36.181Z,98.53
2022-11-17T06:08:07.781Z,98.42
2022-11-17T06:08:39.313Z,98.55
2022-11-17T06:09:11.474Z,98.59
2022-11-17T06:09:43.017Z,98.33
2022-11-17T06:10:14.614Z,98.12
2022-11-17T06:10:46.460Z,98.12
2022-11-17T06:11:19.355Z,98.12
2022-11-17T06:11:50.867Z,98.14
2022-11-17T06:12:22.405Z,97.95
2022-11-17T06:12:53.930Z,97.94
2022-11-17T06:13:28.965Z,97.94
2022-11-17T06:14:00.565Z,98.04
2022-11-17T06:14:32.269Z,98.31
2022-11-17T06:15:04.134Z,98.29
2022-11-17T06:15:35.841Z,98.10
2022-11-17T06:16:10.284Z,98.24
2022-11-17T06:16:46.336Z,98.27
2022-11-17T06:17:22.408Z,98.20
2022-11-17T06:18:00.374Z,98.17
2022-11-17T06:18:44.021Z,98.24
2022-11-17T06:19:20.609Z,98.27
2022-11-17T06:20:01.216Z,98.36
2022-11-17T06:20:37.613Z,98.41
2022-11-17T06:21:10.714Z,98.51
2022-11-17T06:22:09.964Z,98.40
2022-11-17T06:22:34.584Z,98.50
2022-11-17T06:23:08.058Z,98.63
2022-11-17T06:23:39.629Z,98.43
2022-11-17T06:24:11.261Z,98.38
2022-11-17T06:24:45.200Z,98.46
2022-11-17T06:25:19.208Z,98.13
2022-11-17T06:25:50.846Z,98.15
2022-11-17T06:26:22.574Z,98.13
2022-11-17T06:26:54.176Z,98.13
2022-11-17T06:27:26.401Z,97.99
2022-11-17T06:28:01.253Z,98.26
2022-11-17T06:28:35.159Z,98.53
2022-11-17T06:29:08.487Z,98.45
2022-11-17T06:29:44.278Z,98.46
2022-11-17T06:30:16.878Z,98.35
2022-11-17T06:30:49.500Z,98.27
2022-11-17T06:31:21.313Z,98.45
2022-11-17T06:31:53.652Z,98.26
2022-11-17T06:32:25.360Z,98.32
2022-11-17T06:32:58.654Z,98.10
2022-11-17T06:33:31.751Z,98.15
2022-11-17T06:34:04.960Z,98.11
2022-11-17T06:34:37.551Z,98.26
2022-11-17T06:35:11.508Z,98.10
2022-11-17T06:35:44.766Z,98.08
2022-11-17T06:36:16.467Z,98.05
2022-11-17T06:36:48.007Z,98.04
2022-11-17T06:37:20.305Z,98.25
2022-11-17T06:37:51.823Z,98.20
2022-11-17T06:38:23.339Z,98.09
2022-11-17T06:38:54.898Z,98.23
2022-11-17T06:39:26.585Z,98.32
2022-11-17T06:39:58.143Z,98.51
2022-11-17T06:40:29.916Z,98.57
2022-11-17T06:41:07.378Z,98.49
2022-11-17T06:41:42.032Z,98.11
2022-11-17T06:42:13.567Z,98.21
2022-11-17T06:43:03.623Z,98.46
2022-11-17T06:43:35.458Z,98.22
2022-11-17T06:44:07.238Z,98.60
2022-11-17T06:44:39.272Z,98.72
2022-11-17T06:45:11.921Z,98.71
2022-11-17T06:45:46.491Z,98.46
2022-11-17T06:46:19.069Z,98.55
2022-11-17T06:46:50.627Z,98.47
2022-11-17T06:47:22.150Z,98.40
2022-11-17T06:47:54.191Z,98.48
2022-11-17T06:48:27.169Z,98.50
2022-11-17T06:48:58.686Z,98.41
2022-11-17T06:49:30.275Z,98.43
2022-11-17T06:50:02.103Z,98.49
2022-11-17T06:50:34.876Z,98.35
2022-11-17T06:51:06.824Z,98.36
2022-11-17T06:51:43.761Z,98.44
2022-11-17T06:52:17.112Z,98.72
2022-11-17T06:52:48.679Z,98.54
2022-11-17T06:53:22.988Z,98.79
2022-11-17T06:53:54.666Z,98.74
2022-11-17T06:54:26.300Z,98.70
2022-11-17T06:54:57.852Z,98.68
2022-11-17T06:55:29.630Z,98.84
2022-11-17T06:56:08.550Z,98.98
2022-11-17T06:56:40.660Z,98.84
2022-11-17T06:57:12.254Z,98.98
2022-11-17T06:57:46.602Z,99.10
2022-11-17T06:58:22.042Z,99.00
2022-11-17T06:58:54.337Z,98.79
2022-11-17T06:59:25.967Z,98.95
2022-11-17T06:59:57.530Z,99.02
2022-11-17T07:00:30.448Z,98.94
2022-11-17T07:01:10.014Z,98.84
2022-11-17T07:01:41.683Z,98.98
2022-11-17T07:02:13.312Z,98.85
2022-11-17T07:02:44.991Z,98.69
2022-11-17T07:03:16.586Z,98.82
2022-11-17T07:03:48.172Z,98.62
2022-11-17T07:04:19.797Z,98.71
2022-11-17T07:04:51.452Z,98.77
2022-11-17T07:05:23.022Z,98.81
2022-11-17T07:05:54.654Z,98.98
2022-11-17T07:06:26.304Z,99.15
2022-11-17T07:06:57.943Z,98.96
2022-11-17T07:07:29.612Z,98.99
2022-11-17T07:08:04.026Z,98.75
2022-11-17T07:08:36.184Z,98.89
2022-11-17T07:09:08.154Z,98.61
2022-11-17T07:09:39.825Z,98.75
2022-11-17T07:10:11.491Z,98.87
2022-11-17T07:10:48.979Z,98.58
2022-11-17T07:11:20.990Z,98.60
2022-11-17T07:11:52.627Z,98.39
2022-11-17T07:12:24.255Z,98.11
2022-11-17T07:12:56.157Z,98.35
2022-11-17T07:13:27.716Z,98.68
2022-11-17T07:13:59.301Z,98.09
2022-11-17T07:14:31.389Z,98.13
2022-11-17T07:15:03.133Z,98.17
2022-11-17T07:15:34.746Z,98.08
2022-11-17T07:16:20.118Z,97.83
2022-11-17T07:16:54.723Z,98.30
2022-11-17T07:17:26.339Z,98.45
2022-11-17T07:17:58.616Z,98.02
2022-11-17T07:18:30.234Z,98.14
2022-11-17T07:19:03.825Z,98.17
2022-11-17T07:19:35.547Z,98.07
2022-11-17T07:20:07.747Z,97.58
2022-11-17T07:20:39.350Z,97.43
2022-11-17T07:21:13.839Z,97.48
2022-11-17T07:21:45.419Z,97.19
2022-11-17T07:22:17.047Z,97.57
2022-11-17T07:22:49.879Z,97.09
2022-11-17T07:23:22.298Z,97.24
2022-11-17T07:23:54.040Z,97.38
2022-11-17T07:24:25.675Z,97.15
2022-11-17T07:24:57.281Z,96.99
2022-11-17T07:25:28.851Z,96.77
2022-11-17T07:26:01.352Z,97.07
2022-11-17T07:26:32.983Z,97.74
2022-11-17T07:27:06.497Z,97.10
2022-11-17T07:27:38.799Z,97.65
2022-11-17T07:28:10.466Z,97.38
2022-11-17T07:28:42.059Z,97.41
2022-11-17T07:29:13.724Z,97.42
2022-11-17T07:29:45.354Z,97.11
2022-11-17T07:30:17.052Z,97.72
2022-11-17T07:30:48.685Z,97.58
2022-11-17T07:31:20.655Z,97.84
2022-11-17T07:31:52.328Z,97.41
2022-11-17T07:32:24.248Z,97.79
2022-11-17T07:32:57.613Z,97.70
2022-11-17T07:33:29.405Z,97.49
2022-11-17T07:34:00.979Z,97.32
2022-11-17T07:34:32.596Z,97.22
2022-11-17T07:35:05.978Z,96.79
2022-11-17T07:35:37.585Z,97.11
2022-11-17T07:36:11.736Z,96.77
2022-11-17T07:36:43.340Z,96.65
2022-11-17T07:37:14.913Z,96.46
2022-11-17T07:37:46.590Z,96.54
2022-11-17T07:38:18.176Z,96.66
2022-11-17T07:38:49.781Z,96.59
2022-11-17T07:39:22.152Z,96.90
2022-11-17T07:39:53.857Z,97.28
2022-11-17T07:40:25.758Z,96.95